CSN6011 ZSNJ-ZSAM
Flight info
| Callsign | CSN6011 |
|---|---|
| Flight time | 1h 23m |
| Altitude | 31100 |
| Route | K0833S0950 TES61X TESIG A470 ENVEN ENVEN8X |
| Aircraft | A333/H-SDE3GHIJ2J3J5M1RVWXY/LB2D1 |
Departure
| Time | 2026-05-08 12:56 |
|---|---|
| Airport | Nanjing Lukou International Airport (ZSNJ) |
Arrival
| Time | 2026-05-08 14:20 |
|---|---|
| Airport | Xiamen Gaoqi International Airport (ZSAM) |
| Time | Latitude | Longitude | Altitude | Speed | Heading |
|---|---|---|---|---|---|
| 2026-05-08 12:26 | 31.73193 | 118.87316 | 62 ft | 0 kts | 328° |
| 2026-05-08 12:40 | 31.73176 | 118.87329 | 62 ft | 4 kts | 323° |
| 2026-05-08 12:40 | 31.73155 | 118.87349 | 53 ft | 4 kts | 315° |
| 2026-05-08 12:40 | 31.73137 | 118.87373 | 53 ft | 4 kts | 298° |
| 2026-05-08 12:41 | 31.73131 | 118.87400 | 53 ft | 4 kts | 251° |
| 2026-05-08 12:41 | 31.73133 | 118.87407 | 53 ft | 5 kts | 238° |
| 2026-05-08 12:44 | 31.73129 | 118.87400 | 53 ft | 2 kts | 238° |
| 2026-05-08 12:45 | 31.73128 | 118.87397 | 53 ft | 0 kts | 238° |
| 2026-05-08 12:45 | 31.73126 | 118.87394 | 53 ft | 1 kts | 238° |
| 2026-05-08 12:45 | 31.73117 | 118.87378 | 53 ft | 3 kts | 238° |
| 2026-05-08 12:46 | 31.73100 | 118.87346 | 53 ft | 6 kts | 238° |
| 2026-05-08 12:46 | 31.73077 | 118.87302 | 55 ft | 8 kts | 238° |
| 2026-05-08 12:46 | 31.73046 | 118.87245 | 53 ft | 9 kts | 238° |
| 2026-05-08 12:46 | 31.73009 | 118.87175 | 53 ft | 10 kts | 238° |
| 2026-05-08 12:47 | 31.72970 | 118.87102 | 53 ft | 12 kts | 238° |
| 2026-05-08 12:47 | 31.72924 | 118.87015 | 53 ft | 13 kts | 238° |
| 2026-05-08 12:47 | 31.72875 | 118.86924 | 53 ft | 13 kts | 238° |
| 2026-05-08 12:47 | 31.72829 | 118.86838 | 53 ft | 12 kts | 238° |
| 2026-05-08 12:48 | 31.72786 | 118.86759 | 56 ft | 8 kts | 238° |
| 2026-05-08 12:48 | 31.72754 | 118.86698 | 53 ft | 10 kts | 238° |
| 2026-05-08 12:48 | 31.72715 | 118.86626 | 56 ft | 11 kts | 238° |
| 2026-05-08 12:48 | 31.72676 | 118.86554 | 54 ft | 11 kts | 238° |
| 2026-05-08 12:49 | 31.72664 | 118.86473 | 58 ft | 11 kts | 297° |
| 2026-05-08 12:49 | 31.72722 | 118.86414 | 55 ft | 11 kts | 328° |
| 2026-05-08 12:49 | 31.72792 | 118.86363 | 56 ft | 13 kts | 328° |
| 2026-05-08 12:49 | 31.72871 | 118.86304 | 55 ft | 14 kts | 328° |
| 2026-05-08 12:50 | 31.72961 | 118.86238 | 56 ft | 16 kts | 328° |
| 2026-05-08 12:50 | 31.73059 | 118.86166 | 55 ft | 18 kts | 328° |
| 2026-05-08 12:50 | 31.73159 | 118.86091 | 55 ft | 17 kts | 327° |
| 2026-05-08 12:50 | 31.73262 | 118.86016 | 53 ft | 17 kts | 328° |
| 2026-05-08 12:51 | 31.73367 | 118.85938 | 53 ft | 17 kts | 328° |
| 2026-05-08 12:51 | 31.73582 | 118.85779 | 53 ft | 19 kts | 328° |
| 2026-05-08 12:51 | 31.73685 | 118.85701 | 53 ft | 14 kts | 320° |
| 2026-05-08 12:52 | 31.73686 | 118.85599 | 56 ft | 13 kts | 242° |
| 2026-05-08 12:52 | 31.73581 | 118.85402 | 53 ft | 16 kts | 238° |
| 2026-05-08 12:52 | 31.73520 | 118.85287 | 53 ft | 17 kts | 238° |
| 2026-05-08 12:53 | 31.73454 | 118.85164 | 53 ft | 18 kts | 237° |
| 2026-05-08 12:53 | 31.73386 | 118.85039 | 53 ft | 18 kts | 238° |
| 2026-05-08 12:53 | 31.73323 | 118.84921 | 57 ft | 16 kts | 238° |
| 2026-05-08 12:53 | 31.73273 | 118.84827 | 59 ft | 13 kts | 237° |
| 2026-05-08 12:54 | 31.73252 | 118.84789 | 55 ft | 1 kts | 238° |
| 2026-05-08 12:54 | 31.73245 | 118.84775 | 56 ft | 3 kts | 238° |
| 2026-05-08 12:54 | 31.73232 | 118.84744 | 53 ft | 5 kts | 255° |
| 2026-05-08 12:54 | 31.73242 | 118.84698 | 55 ft | 7 kts | 303° |
| 2026-05-08 12:55 | 31.73283 | 118.84659 | 53 ft | 8 kts | 327° |
| 2026-05-08 12:55 | 31.73338 | 118.84630 | 58 ft | 9 kts | 357° |
| 2026-05-08 12:55 | 31.73398 | 118.84670 | 58 ft | 11 kts | 48° |
| 2026-05-08 12:55 | 31.73444 | 118.84752 | 53 ft | 20 kts | 58° |
| 2026-05-08 12:56 | 31.73634 | 118.85106 | 52 ft | 84 kts | 57° |
| 2026-05-08 12:56 | 31.74059 | 118.85900 | 56 ft | 144 kts | 58° |
| 2026-05-08 12:56 | 31.74671 | 118.87051 | 322 ft | 176 kts | 59° |
| 2026-05-08 12:56 | 31.75307 | 118.88247 | 1208 ft | 170 kts | 62° |
| 2026-05-08 12:57 | 31.75928 | 118.89429 | 2039 ft | 171 kts | 61° |
| 2026-05-08 12:57 | 31.76592 | 118.90669 | 2485 ft | 193 kts | 60° |
| 2026-05-08 12:57 | 31.77365 | 118.92112 | 2849 ft | 221 kts | 59° |
| 2026-05-08 12:57 | 31.78207 | 118.93681 | 3535 ft | 231 kts | 59° |
| 2026-05-08 12:58 | 31.79078 | 118.95303 | 4340 ft | 236 kts | 59° |
| 2026-05-08 12:58 | 31.79889 | 118.96979 | 5295 ft | 236 kts | 68° |
| 2026-05-08 12:58 | 31.80211 | 118.98867 | 6169 ft | 239 kts | 93° |
| 2026-05-08 12:58 | 31.79743 | 119.00745 | 6977 ft | 245 kts | 121° |
| 2026-05-08 12:59 | 31.78523 | 119.02150 | 7788 ft | 251 kts | 150° |
| 2026-05-08 12:59 | 31.76857 | 119.02684 | 8603 ft | 258 kts | 179° |
| 2026-05-08 12:59 | 31.75113 | 119.02174 | 9406 ft | 263 kts | 206° |
| 2026-05-08 12:59 | 31.73529 | 119.01071 | 10248 ft | 266 kts | 214° |
| 2026-05-08 13:00 | 31.71971 | 118.99857 | 10994 ft | 270 kts | 215° |
| 2026-05-08 13:00 | 31.70390 | 118.98630 | 11739 ft | 275 kts | 213° |
| 2026-05-08 13:00 | 31.68620 | 118.97745 | 12469 ft | 282 kts | 191° |
| 2026-05-08 13:00 | 31.66647 | 118.97919 | 13053 ft | 296 kts | 161° |
| 2026-05-08 13:01 | 31.64796 | 118.99155 | 13366 ft | 317 kts | 144° |
| 2026-05-08 13:01 | 31.62987 | 119.00780 | 13680 ft | 337 kts | 142° |
| 2026-05-08 13:01 | 31.61090 | 119.02528 | 13992 ft | 357 kts | 142° |
| 2026-05-08 13:01 | 31.59078 | 119.04355 | 14274 ft | 374 kts | 143° |
| 2026-05-08 13:02 | 31.56972 | 119.06236 | 14734 ft | 385 kts | 143° |
| 2026-05-08 13:02 | 31.54821 | 119.08139 | 15363 ft | 390 kts | 143° |
| 2026-05-08 13:02 | 31.52639 | 119.10059 | 16016 ft | 395 kts | 143° |
| 2026-05-08 13:02 | 31.50428 | 119.12000 | 16691 ft | 399 kts | 144° |
| 2026-05-08 13:03 | 31.48202 | 119.13951 | 17352 ft | 403 kts | 144° |
| 2026-05-08 13:03 | 31.45941 | 119.15931 | 18008 ft | 407 kts | 144° |
| 2026-05-08 13:03 | 31.43665 | 119.17921 | 18638 ft | 410 kts | 144° |
| 2026-05-08 13:03 | 31.41361 | 119.19932 | 19118 ft | 416 kts | 146° |
| 2026-05-08 13:04 | 31.39021 | 119.21974 | 19580 ft | 423 kts | 146° |
| 2026-05-08 13:04 | 31.36647 | 119.24045 | 20073 ft | 428 kts | 146° |
| 2026-05-08 13:04 | 31.34244 | 119.26140 | 20511 ft | 434 kts | 147° |
| 2026-05-08 13:04 | 31.31804 | 119.28266 | 20970 ft | 439 kts | 147° |
| 2026-05-08 13:05 | 31.29368 | 119.30387 | 21439 ft | 444 kts | 147° |
| 2026-05-08 13:05 | 31.26879 | 119.32553 | 21888 ft | 449 kts | 147° |
| 2026-05-08 13:05 | 31.24360 | 119.34743 | 22362 ft | 454 kts | 148° |
| 2026-05-08 13:05 | 31.21811 | 119.36957 | 22807 ft | 458 kts | 148° |
| 2026-05-08 13:06 | 31.19232 | 119.39192 | 23231 ft | 463 kts | 148° |
| 2026-05-08 13:06 | 31.16636 | 119.41452 | 23658 ft | 468 kts | 148° |
| 2026-05-08 13:06 | 31.14011 | 119.43747 | 24031 ft | 473 kts | 148° |
| 2026-05-08 13:06 | 31.11375 | 119.46054 | 24456 ft | 475 kts | 149° |
| 2026-05-08 13:07 | 31.08723 | 119.48374 | 24811 ft | 479 kts | 149° |
| 2026-05-08 13:07 | 31.06053 | 119.50709 | 25237 ft | 480 kts | 150° |
| 2026-05-08 13:07 | 31.03375 | 119.53047 | 25675 ft | 482 kts | 150° |
| 2026-05-08 13:07 | 31.00688 | 119.55391 | 26110 ft | 484 kts | 150° |
| 2026-05-08 13:08 | 30.97986 | 119.57744 | 26518 ft | 486 kts | 150° |
| 2026-05-08 13:08 | 30.95274 | 119.60104 | 26913 ft | 488 kts | 150° |
| 2026-05-08 13:08 | 30.92544 | 119.62477 | 27338 ft | 490 kts | 151° |
| 2026-05-08 13:08 | 30.89807 | 119.64854 | 27737 ft | 492 kts | 151° |
| 2026-05-08 13:09 | 30.87053 | 119.67245 | 28113 ft | 494 kts | 151° |
| 2026-05-08 13:09 | 30.84283 | 119.69647 | 28501 ft | 496 kts | 152° |
| 2026-05-08 13:09 | 30.81510 | 119.72050 | 28904 ft | 499 kts | 152° |
| 2026-05-08 13:09 | 30.78761 | 119.74432 | 29327 ft | 498 kts | 151° |
| 2026-05-08 13:10 | 30.75980 | 119.76842 | 29775 ft | 499 kts | 152° |
| 2026-05-08 13:10 | 30.73183 | 119.79261 | 30121 ft | 502 kts | 152° |
| 2026-05-08 13:10 | 30.70372 | 119.81688 | 30433 ft | 505 kts | 152° |
| 2026-05-08 13:10 | 30.67538 | 119.84123 | 30682 ft | 508 kts | 152° |
| 2026-05-08 13:11 | 30.64681 | 119.86566 | 30929 ft | 511 kts | 152° |
| 2026-05-08 13:11 | 30.62784 | 119.88189 | 31121 ft | 512 kts | 152° |
| 2026-05-08 13:11 | 30.59905 | 119.90659 | 31291 ft | 512 kts | 151° |
| 2026-05-08 13:11 | 30.56147 | 119.93977 | 31307 ft | 505 kts | 150° |
| 2026-05-08 13:12 | 30.51433 | 119.97921 | 31314 ft | 493 kts | 159° |
| 2026-05-08 13:12 | 30.48391 | 119.99627 | 31300 ft | 479 kts | 168° |
| 2026-05-08 13:12 | 30.45226 | 120.00679 | 31314 ft | 465 kts | 179° |
| 2026-05-08 13:13 | 30.42105 | 120.01051 | 31314 ft | 452 kts | 189° |
| 2026-05-08 13:13 | 30.39019 | 120.00775 | 31320 ft | 439 kts | 199° |
| 2026-05-08 13:13 | 30.36101 | 119.99895 | 31322 ft | 428 kts | 208° |
| 2026-05-08 13:13 | 30.33415 | 119.98505 | 31319 ft | 420 kts | 215° |
| 2026-05-08 13:14 | 30.28330 | 119.95209 | 31318 ft | 418 kts | 217° |
| 2026-05-08 13:14 | 30.23331 | 119.91788 | 31320 ft | 418 kts | 218° |
| 2026-05-08 13:15 | 30.18308 | 119.88388 | 31324 ft | 418 kts | 217° |
| 2026-05-08 13:15 | 30.13267 | 119.85025 | 31325 ft | 418 kts | 217° |
| 2026-05-08 13:16 | 30.08207 | 119.81675 | 31324 ft | 418 kts | 217° |
| 2026-05-08 13:16 | 30.03205 | 119.78357 | 31319 ft | 418 kts | 216° |
| 2026-05-08 13:17 | 29.98167 | 119.74971 | 31323 ft | 420 kts | 216° |
| 2026-05-08 13:17 | 29.93122 | 119.71574 | 31327 ft | 420 kts | 216° |
| 2026-05-08 13:18 | 29.88001 | 119.68302 | 31322 ft | 425 kts | 211° |
| 2026-05-08 13:18 | 29.82226 | 119.66398 | 31309 ft | 441 kts | 194° |
| 2026-05-08 13:19 | 29.76038 | 119.65844 | 31328 ft | 449 kts | 190° |
| 2026-05-08 13:19 | 29.69786 | 119.65487 | 31325 ft | 450 kts | 190° |
| 2026-05-08 13:20 | 29.63540 | 119.65104 | 31334 ft | 449 kts | 190° |
| 2026-05-08 13:20 | 29.57279 | 119.64856 | 31312 ft | 452 kts | 188° |
| 2026-05-08 13:21 | 29.50975 | 119.64632 | 31323 ft | 454 kts | 190° |
| 2026-05-08 13:21 | 29.44696 | 119.64271 | 31318 ft | 454 kts | 190° |
| 2026-05-08 13:22 | 29.38347 | 119.63877 | 31331 ft | 454 kts | 190° |
| 2026-05-08 13:22 | 29.32084 | 119.63476 | 31318 ft | 454 kts | 191° |
| 2026-05-08 13:23 | 29.25730 | 119.63074 | 31326 ft | 459 kts | 190° |
| 2026-05-08 13:23 | 29.19351 | 119.62679 | 31328 ft | 459 kts | 190° |
| 2026-05-08 13:24 | 29.12967 | 119.62295 | 31326 ft | 459 kts | 190° |
| 2026-05-08 13:24 | 29.06583 | 119.61907 | 31318 ft | 459 kts | 190° |
| 2026-05-08 13:25 | 29.00188 | 119.61508 | 31328 ft | 461 kts | 191° |
| 2026-05-08 13:25 | 28.93776 | 119.61108 | 31331 ft | 461 kts | 190° |
| 2026-05-08 13:26 | 28.87374 | 119.60711 | 31331 ft | 461 kts | 190° |
| 2026-05-08 13:26 | 28.80956 | 119.60309 | 31329 ft | 462 kts | 191° |
| 2026-05-08 13:27 | 28.74516 | 119.59912 | 31329 ft | 464 kts | 191° |
| 2026-05-08 13:27 | 28.68065 | 119.59513 | 31330 ft | 464 kts | 190° |
| 2026-05-08 13:28 | 28.61620 | 119.59116 | 31330 ft | 464 kts | 191° |
| 2026-05-08 13:28 | 28.55196 | 119.58719 | 31327 ft | 465 kts | 190° |
| 2026-05-08 13:29 | 28.48717 | 119.58318 | 31336 ft | 467 kts | 190° |
| 2026-05-08 13:29 | 28.42225 | 119.57932 | 31328 ft | 467 kts | 190° |
| 2026-05-08 13:30 | 28.35739 | 119.57573 | 31330 ft | 467 kts | 190° |
| 2026-05-08 13:30 | 28.29243 | 119.57224 | 31325 ft | 468 kts | 190° |
| 2026-05-08 13:31 | 28.22720 | 119.56865 | 31322 ft | 469 kts | 190° |
| 2026-05-08 13:31 | 28.16236 | 119.56505 | 31316 ft | 469 kts | 190° |
| 2026-05-08 13:32 | 28.09702 | 119.56153 | 31315 ft | 470 kts | 189° |
| 2026-05-08 13:32 | 28.03139 | 119.55993 | 31310 ft | 473 kts | 188° |
| 2026-05-08 13:33 | 27.96544 | 119.55927 | 31310 ft | 474 kts | 188° |
| 2026-05-08 13:33 | 27.89956 | 119.55866 | 31326 ft | 474 kts | 188° |
| 2026-05-08 13:34 | 27.83353 | 119.55836 | 31304 ft | 474 kts | 187° |
| 2026-05-08 13:34 | 27.76759 | 119.55816 | 31300 ft | 474 kts | 188° |
| 2026-05-08 13:35 | 27.70209 | 119.55767 | 31317 ft | 474 kts | 188° |
| 2026-05-08 13:35 | 27.63619 | 119.55721 | 31312 ft | 474 kts | 188° |
| 2026-05-08 13:36 | 27.57024 | 119.55684 | 31300 ft | 474 kts | 188° |
| 2026-05-08 13:36 | 27.50432 | 119.55646 | 31299 ft | 473 kts | 188° |
| 2026-05-08 13:37 | 27.43843 | 119.55610 | 31300 ft | 474 kts | 188° |
| 2026-05-08 13:37 | 27.37248 | 119.55592 | 31300 ft | 474 kts | 187° |
| 2026-05-08 13:38 | 27.30656 | 119.55586 | 31302 ft | 474 kts | 187° |
| 2026-05-08 13:38 | 27.24058 | 119.55572 | 31300 ft | 474 kts | 187° |
| 2026-05-08 13:39 | 27.17452 | 119.55533 | 31300 ft | 474 kts | 188° |
| 2026-05-08 13:39 | 27.10847 | 119.55486 | 31298 ft | 475 kts | 188° |
| 2026-05-08 13:40 | 27.04243 | 119.55442 | 31297 ft | 474 kts | 188° |
| 2026-05-08 13:40 | 26.97683 | 119.55400 | 31295 ft | 475 kts | 187° |
| 2026-05-08 13:41 | 26.91076 | 119.55358 | 31299 ft | 475 kts | 187° |
| 2026-05-08 13:41 | 26.84467 | 119.55315 | 31299 ft | 475 kts | 187° |
| 2026-05-08 13:42 | 26.77859 | 119.55274 | 31294 ft | 475 kts | 187° |
| 2026-05-08 13:42 | 26.71245 | 119.55232 | 31289 ft | 476 kts | 187° |
| 2026-05-08 13:43 | 26.64607 | 119.55190 | 31288 ft | 477 kts | 187° |
| 2026-05-08 13:43 | 26.57924 | 119.55144 | 31000 ft | 486 kts | 187° |
| 2026-05-08 13:44 | 26.54534 | 119.55120 | 30653 ft | 486 kts | 187° |
| 2026-05-08 13:44 | 26.51162 | 119.55100 | 30312 ft | 484 kts | 187° |
| 2026-05-08 13:44 | 26.47799 | 119.55083 | 29894 ft | 481 kts | 187° |
| 2026-05-08 13:44 | 26.44456 | 119.55065 | 29494 ft | 479 kts | 187° |
| 2026-05-08 13:45 | 26.41141 | 119.55047 | 29103 ft | 475 kts | 187° |
| 2026-05-08 13:45 | 26.37841 | 119.55027 | 28706 ft | 472 kts | 187° |
| 2026-05-08 13:45 | 26.34614 | 119.54998 | 28333 ft | 468 kts | 187° |
| 2026-05-08 13:45 | 26.31370 | 119.54961 | 27951 ft | 465 kts | 187° |
| 2026-05-08 13:46 | 26.28154 | 119.54922 | 27565 ft | 461 kts | 187° |
| 2026-05-08 13:46 | 26.24954 | 119.54868 | 27204 ft | 456 kts | 189° |
| 2026-05-08 13:46 | 26.21832 | 119.54495 | 26826 ft | 446 kts | 197° |
| 2026-05-08 13:46 | 26.18831 | 119.53721 | 26475 ft | 440 kts | 200° |
| 2026-05-08 13:47 | 26.15897 | 119.52822 | 26115 ft | 435 kts | 202° |
| 2026-05-08 13:47 | 26.13004 | 119.51859 | 25842 ft | 432 kts | 203° |
| 2026-05-08 13:47 | 26.10140 | 119.50868 | 25778 ft | 430 kts | 203° |
| 2026-05-08 13:47 | 26.07294 | 119.49871 | 25766 ft | 429 kts | 203° |
| 2026-05-08 13:48 | 26.04447 | 119.48876 | 25769 ft | 429 kts | 203° |
| 2026-05-08 13:48 | 26.01598 | 119.47889 | 25770 ft | 428 kts | 203° |
| 2026-05-08 13:48 | 25.98748 | 119.46909 | 25761 ft | 429 kts | 202° |
| 2026-05-08 13:48 | 25.95887 | 119.45931 | 25774 ft | 430 kts | 202° |
| 2026-05-08 13:49 | 25.93025 | 119.44955 | 25776 ft | 430 kts | 202° |
| 2026-05-08 13:49 | 25.90159 | 119.43981 | 25778 ft | 431 kts | 202° |
| 2026-05-08 13:49 | 25.87326 | 119.43019 | 25778 ft | 431 kts | 202° |
| 2026-05-08 13:49 | 25.84463 | 119.42048 | 25776 ft | 431 kts | 202° |
| 2026-05-08 13:50 | 25.81597 | 119.41079 | 25777 ft | 431 kts | 202° |
| 2026-05-08 13:50 | 25.78731 | 119.40108 | 25766 ft | 431 kts | 202° |
| 2026-05-08 13:50 | 25.75921 | 119.39008 | 25765 ft | 425 kts | 210° |
| 2026-05-08 13:50 | 25.73407 | 119.37351 | 25752 ft | 417 kts | 222° |
| 2026-05-08 13:51 | 25.71224 | 119.35251 | 25771 ft | 415 kts | 227° |
| 2026-05-08 13:51 | 25.69166 | 119.33010 | 25761 ft | 414 kts | 230° |
| 2026-05-08 13:51 | 25.67182 | 119.30698 | 25762 ft | 414 kts | 231° |
| 2026-05-08 13:51 | 25.65228 | 119.28354 | 25757 ft | 414 kts | 231° |
| 2026-05-08 13:52 | 25.63275 | 119.25997 | 25775 ft | 414 kts | 231° |
| 2026-05-08 13:52 | 25.61324 | 119.23654 | 25780 ft | 414 kts | 231° |
| 2026-05-08 13:52 | 25.59363 | 119.21322 | 25775 ft | 413 kts | 231° |
| 2026-05-08 13:52 | 25.57396 | 119.18995 | 25755 ft | 413 kts | 231° |
| 2026-05-08 13:53 | 25.55425 | 119.16675 | 25761 ft | 414 kts | 231° |
| 2026-05-08 13:53 | 25.53448 | 119.14358 | 25762 ft | 414 kts | 231° |
| 2026-05-08 13:53 | 25.51474 | 119.12047 | 25763 ft | 414 kts | 230° |
| 2026-05-08 13:53 | 25.49485 | 119.09721 | 25687 ft | 419 kts | 230° |
| 2026-05-08 13:54 | 25.47468 | 119.07360 | 25078 ft | 424 kts | 230° |
| 2026-05-08 13:54 | 25.45431 | 119.04978 | 24279 ft | 428 kts | 230° |
| 2026-05-08 13:54 | 25.43431 | 119.02645 | 23976 ft | 418 kts | 230° |
| 2026-05-08 13:54 | 25.41461 | 119.00352 | 23720 ft | 407 kts | 230° |
| 2026-05-08 13:55 | 25.39527 | 118.98098 | 23337 ft | 402 kts | 230° |
| 2026-05-08 13:55 | 25.37604 | 118.95854 | 22951 ft | 401 kts | 230° |
| 2026-05-08 13:55 | 25.33802 | 118.91401 | 22175 ft | 395 kts | 230° |
| 2026-05-08 13:56 | 25.31950 | 118.89168 | 21809 ft | 392 kts | 231° |
| 2026-05-08 13:56 | 25.30116 | 118.86945 | 21449 ft | 390 kts | 231° |
| 2026-05-08 13:56 | 25.28289 | 118.84732 | 21089 ft | 388 kts | 230° |
| 2026-05-08 13:56 | 25.26475 | 118.82534 | 20727 ft | 386 kts | 230° |
| 2026-05-08 13:57 | 25.24669 | 118.80348 | 20370 ft | 384 kts | 230° |
| 2026-05-08 13:57 | 25.23479 | 118.78908 | 20132 ft | 383 kts | 230° |
| 2026-05-08 13:57 | 25.21080 | 118.76009 | 19672 ft | 380 kts | 230° |
| 2026-05-08 13:57 | 25.19299 | 118.73856 | 19331 ft | 379 kts | 230° |
| 2026-05-08 13:58 | 25.17524 | 118.71714 | 19006 ft | 377 kts | 230° |
| 2026-05-08 13:58 | 25.15761 | 118.69587 | 18660 ft | 375 kts | 230° |
| 2026-05-08 13:58 | 25.14000 | 118.67464 | 18318 ft | 373 kts | 230° |
| 2026-05-08 13:58 | 25.12840 | 118.66066 | 18051 ft | 372 kts | 229° |
| 2026-05-08 13:59 | 25.11095 | 118.63962 | 17680 ft | 372 kts | 229° |
| 2026-05-08 13:59 | 25.09342 | 118.61865 | 17310 ft | 371 kts | 229° |
| 2026-05-08 13:59 | 25.07569 | 118.59806 | 16933 ft | 370 kts | 228° |
| 2026-05-08 13:59 | 25.05789 | 118.57759 | 16549 ft | 369 kts | 228° |
| 2026-05-08 14:00 | 25.04010 | 118.55717 | 16183 ft | 368 kts | 228° |
| 2026-05-08 14:00 | 25.02241 | 118.53685 | 15910 ft | 367 kts | 228° |
| 2026-05-08 14:00 | 25.00478 | 118.51661 | 15834 ft | 366 kts | 228° |
| 2026-05-08 14:00 | 24.98715 | 118.49636 | 15822 ft | 366 kts | 228° |
| 2026-05-08 14:01 | 24.96952 | 118.47612 | 15823 ft | 366 kts | 228° |
| 2026-05-08 14:01 | 24.95187 | 118.45587 | 15823 ft | 366 kts | 228° |
| 2026-05-08 14:01 | 24.93425 | 118.43566 | 15612 ft | 368 kts | 228° |
| 2026-05-08 14:01 | 24.91629 | 118.41510 | 14971 ft | 375 kts | 228° |
| 2026-05-08 14:02 | 24.89803 | 118.39420 | 14134 ft | 380 kts | 228° |
| 2026-05-08 14:02 | 24.87960 | 118.37313 | 13321 ft | 380 kts | 228° |
| 2026-05-08 14:02 | 24.86178 | 118.35282 | 12557 ft | 367 kts | 228° |
| 2026-05-08 14:02 | 24.84451 | 118.33314 | 12081 ft | 346 kts | 229° |
| 2026-05-08 14:03 | 24.82843 | 118.31484 | 11932 ft | 319 kts | 229° |
| 2026-05-08 14:03 | 24.81357 | 118.29792 | 11904 ft | 297 kts | 229° |
| 2026-05-08 14:03 | 24.79938 | 118.28170 | 11675 ft | 294 kts | 229° |
| 2026-05-08 14:03 | 24.78530 | 118.26556 | 11215 ft | 288 kts | 229° |
| 2026-05-08 14:04 | 24.77161 | 118.24995 | 10798 ft | 280 kts | 229° |
| 2026-05-08 14:04 | 24.75822 | 118.23467 | 10389 ft | 275 kts | 229° |
| 2026-05-08 14:04 | 24.74504 | 118.21964 | 10072 ft | 272 kts | 229° |
| 2026-05-08 14:04 | 24.73192 | 118.20466 | 9740 ft | 272 kts | 230° |
| 2026-05-08 14:05 | 24.71878 | 118.18969 | 9401 ft | 271 kts | 229° |
| 2026-05-08 14:05 | 24.70570 | 118.17476 | 9105 ft | 270 kts | 229° |
| 2026-05-08 14:05 | 24.69267 | 118.15994 | 8799 ft | 269 kts | 229° |
| 2026-05-08 14:05 | 24.67985 | 118.14535 | 8490 ft | 268 kts | 229° |
| 2026-05-08 14:06 | 24.66691 | 118.13063 | 8190 ft | 267 kts | 229° |
| 2026-05-08 14:06 | 24.65403 | 118.11596 | 7869 ft | 266 kts | 230° |
| 2026-05-08 14:06 | 24.64123 | 118.10133 | 7571 ft | 266 kts | 228° |
| 2026-05-08 14:06 | 24.62835 | 118.08672 | 7251 ft | 265 kts | 229° |
| 2026-05-08 14:07 | 24.61553 | 118.07223 | 6937 ft | 265 kts | 230° |
| 2026-05-08 14:07 | 24.60277 | 118.05773 | 6625 ft | 264 kts | 227° |
| 2026-05-08 14:07 | 24.59003 | 118.04324 | 6341 ft | 263 kts | 227° |
| 2026-05-08 14:07 | 24.57734 | 118.02884 | 6015 ft | 262 kts | 227° |
| 2026-05-08 14:08 | 24.56471 | 118.01418 | 5559 ft | 267 kts | 228° |
| 2026-05-08 14:08 | 24.55218 | 117.99912 | 5196 ft | 269 kts | 228° |
| 2026-05-08 14:08 | 24.53965 | 117.98394 | 4918 ft | 265 kts | 227° |
| 2026-05-08 14:08 | 24.52751 | 117.96922 | 4827 ft | 253 kts | 227° |
| 2026-05-08 14:09 | 24.51600 | 117.95528 | 4770 ft | 239 kts | 227° |
| 2026-05-08 14:09 | 24.50522 | 117.94220 | 4618 ft | 228 kts | 227° |
| 2026-05-08 14:09 | 24.49472 | 117.92948 | 4522 ft | 225 kts | 227° |
| 2026-05-08 14:09 | 24.48433 | 117.91685 | 4275 ft | 221 kts | 227° |
| 2026-05-08 14:10 | 24.47410 | 117.90437 | 4039 ft | 218 kts | 227° |
| 2026-05-08 14:10 | 24.46413 | 117.89216 | 3897 ft | 209 kts | 227° |
| 2026-05-08 14:10 | 24.45462 | 117.88043 | 3881 ft | 204 kts | 227° |
| 2026-05-08 14:10 | 24.44524 | 117.86888 | 3876 ft | 204 kts | 227° |
| 2026-05-08 14:11 | 24.43580 | 117.85726 | 3876 ft | 204 kts | 227° |
| 2026-05-08 14:11 | 24.42639 | 117.84564 | 3875 ft | 204 kts | 227° |
| 2026-05-08 14:11 | 24.41689 | 117.83409 | 3878 ft | 207 kts | 223° |
| 2026-05-08 14:11 | 24.40417 | 117.82645 | 3877 ft | 213 kts | 187° |
| 2026-05-08 14:12 | 24.39032 | 117.82799 | 3868 ft | 194 kts | 151° |
| 2026-05-08 14:12 | 24.37922 | 117.83570 | 3882 ft | 187 kts | 137° |
| 2026-05-08 14:12 | 24.36922 | 117.84471 | 3872 ft | 185 kts | 131° |
| 2026-05-08 14:12 | 24.36350 | 117.85665 | 3875 ft | 176 kts | 91° |
| 2026-05-08 14:13 | 24.36517 | 117.86974 | 3880 ft | 173 kts | 73° |
| 2026-05-08 14:13 | 24.36987 | 117.88191 | 3879 ft | 174 kts | 62° |
| 2026-05-08 14:13 | 24.37649 | 117.89310 | 3868 ft | 175 kts | 55° |
| 2026-05-08 14:13 | 24.38388 | 117.90367 | 3873 ft | 175 kts | 53° |
| 2026-05-08 14:14 | 24.39137 | 117.91407 | 3826 ft | 171 kts | 53° |
| 2026-05-08 14:14 | 24.39870 | 117.92426 | 3513 ft | 172 kts | 53° |
| 2026-05-08 14:14 | 24.40617 | 117.93472 | 3179 ft | 175 kts | 53° |
| 2026-05-08 14:14 | 24.41344 | 117.94492 | 3050 ft | 168 kts | 53° |
| 2026-05-08 14:15 | 24.42044 | 117.95472 | 2967 ft | 157 kts | 53° |
| 2026-05-08 14:15 | 24.42709 | 117.96404 | 2972 ft | 154 kts | 53° |
| 2026-05-08 14:15 | 24.43369 | 117.97328 | 2975 ft | 152 kts | 53° |
| 2026-05-08 14:15 | 24.44022 | 117.98240 | 2987 ft | 154 kts | 53° |
| 2026-05-08 14:16 | 24.44674 | 117.99150 | 2850 ft | 150 kts | 53° |
| 2026-05-08 14:16 | 24.45315 | 118.00044 | 2648 ft | 149 kts | 52° |
| 2026-05-08 14:16 | 24.45955 | 118.00939 | 2433 ft | 149 kts | 52° |
| 2026-05-08 14:16 | 24.46582 | 118.01815 | 2225 ft | 142 kts | 53° |
| 2026-05-08 14:17 | 24.47183 | 118.02655 | 2051 ft | 139 kts | 53° |
| 2026-05-08 14:17 | 24.47769 | 118.03474 | 1866 ft | 132 kts | 52° |
| 2026-05-08 14:17 | 24.48316 | 118.04239 | 1698 ft | 129 kts | 53° |
| 2026-05-08 14:17 | 24.48873 | 118.05018 | 1530 ft | 130 kts | 52° |
| 2026-05-08 14:18 | 24.49432 | 118.05801 | 1348 ft | 130 kts | 53° |
| 2026-05-08 14:18 | 24.49993 | 118.06584 | 1190 ft | 130 kts | 52° |
| 2026-05-08 14:18 | 24.50537 | 118.07346 | 1024 ft | 123 kts | 52° |
| 2026-05-08 14:18 | 24.51060 | 118.08079 | 854 ft | 123 kts | 52° |
| 2026-05-08 14:19 | 24.51591 | 118.08818 | 734 ft | 124 kts | 51° |
| 2026-05-08 14:19 | 24.52129 | 118.09553 | 538 ft | 122 kts | 52° |
| 2026-05-08 14:19 | 24.52644 | 118.10277 | 369 ft | 122 kts | 55° |
| 2026-05-08 14:19 | 24.53163 | 118.11002 | 212 ft | 119 kts | 53° |
| 2026-05-08 14:20 | 24.53665 | 118.11726 | 61 ft | 118 kts | 49° |
| 2026-05-08 14:20 | 24.54090 | 118.12319 | 52 ft | 72 kts | 52° |
| 2026-05-08 14:20 | 24.54286 | 118.12592 | 51 ft | 30 kts | 52° |
| 2026-05-08 14:20 | 24.54420 | 118.12779 | 49 ft | 32 kts | 52° |
| 2026-05-08 14:21 | 24.54509 | 118.12974 | 49 ft | 20 kts | 76° |
| 2026-05-08 14:21 | 24.54534 | 118.13107 | 49 ft | 18 kts | 78° |
| 2026-05-08 14:21 | 24.54546 | 118.13163 | 50 ft | 1 kts | 76° |
| 2026-05-08 14:21 | 24.54546 | 118.13165 | 50 ft | 0 kts | 76° |
| 2026-05-08 14:22 | 24.54542 | 118.13184 | 51 ft | 3 kts | 118° |
| 2026-05-08 14:22 | 24.54534 | 118.13185 | 52 ft | 1 kts | 173° |
| 2026-05-08 14:22 | 24.54524 | 118.13181 | 48 ft | 3 kts | 194° |
| 2026-05-08 14:22 | 24.54495 | 118.13164 | 49 ft | 6 kts | 217° |
| 2026-05-08 14:23 | 24.54461 | 118.13139 | 52 ft | 3 kts | 193° |
| 2026-05-08 14:23 | 24.54451 | 118.13148 | 51 ft | 3 kts | 140° |
| 2026-05-08 14:23 | 24.54423 | 118.13174 | 51 ft | 7 kts | 137° |
| 2026-05-08 14:23 | 24.54373 | 118.13210 | 52 ft | 10 kts | 170° |
| 2026-05-08 14:24 | 24.54312 | 118.13172 | 53 ft | 11 kts | 227° |
| 2026-05-08 14:24 | 24.54257 | 118.13099 | 49 ft | 14 kts | 231° |
| 2026-05-08 14:24 | 24.54213 | 118.13037 | 49 ft | 11 kts | 231° |
| 2026-05-08 14:24 | 24.54159 | 118.12962 | 56 ft | 14 kts | 232° |
| 2026-05-08 14:25 | 24.54097 | 118.12872 | 51 ft | 15 kts | 234° |
| 2026-05-08 14:25 | 24.54032 | 118.12779 | 51 ft | 15 kts | 232° |
| 2026-05-08 14:25 | 24.53962 | 118.12679 | 52 ft | 17 kts | 232° |
| 2026-05-08 14:25 | 24.53897 | 118.12587 | 53 ft | 15 kts | 232° |
| 2026-05-08 14:26 | 24.53826 | 118.12545 | 55 ft | 9 kts | 165° |
| 2026-05-08 14:26 | 24.53789 | 118.12570 | 55 ft | 2 kts | 145° |
| 2026-05-08 14:26 | 24.53786 | 118.12572 | 54 ft | 0 kts | 146° |